Mojave, CA (93502)

9:30 PM PDT on October 20, 2014 (GMT -0700)
Mojave | Change Station
CLOSE
Current Station
Airport
Location: Mojave,
Elevation: 2785 ft
Nearby Weather Stations

Elev 2785 ft 35.06 °N, 118.15 °W | Updated 15 minutes ago

Clear
Clear
64 °F
Feels Like 64 °F
N
22
Wind Variable Wind from West
Gusts 36 mph

Today
High -- | Low -- °F
--% Chance of Precip.
Yesterday
High -- | Low -- °F
Precip. -- in
7:03 AM 6:11 PM
Waning Crescent, 7% visible
Pressure 29.94 in
Visibility 10.0 miles
Clouds Clear
Dew Point 46 °F
Humidity 52%
Rainfall 0.00 in
Snow Depth Not available.
UV 0 out of 12
Pollen 4.50 out of 12
Ozone Good
Flu Activity Sporadic
METAR KMHV 210415Z AUTO 27019G31KT 10SM CLR 18/08 A2994 RMK AO1

More Conditions Fewer Conditions

Pressure 29.94 in
Visibility 10.0 miles
Clouds Clear
Dew Point 46 °F
Humidity 52%
Rainfall 0.00 in
Snow Depth Not available.
UV 0 out of 12
Pollen 4.50 out of 12
Ozone Good
Flu Activity Sporadic
METAR KMHV 210415Z AUTO 27019G31KT 10SM CLR 18/08 A2994 RMK AO1

More Conditions Fewer Conditions

10-Day Weather Forecast

Almanac

Astronomy

Oct. 20, 2014 Rise Set
Actual Time 7:03 AM PDT 6:11 PM PDT
Civil Twilight 6:37 AM PDT 6:37 PM PDT
Nautical Twilight 6:07 AM PDT 7:06 PM PDT
Astronomical Twilight 5:38 AM PDT 7:35 PM PDT
Moon 4:02 AM PDT (10/20) 4:30 PM PDT (10/20)
Length of Visible Light 11h 59m
Length of Day
11h 08m
Tomorrow will be 2m 4s shorter.
Waning Crescent, 7% of the Moon is Illuminated
Oct 21
Waning Crescent
Oct 23
New
Oct 30
First Quarter
Nov 6
Full
Nov 14
Last Quarter

Yesterday's Extremes

State Highs State Lows

Community

WunderPhotos

Upload Photos

1,763,610 photos uploaded!

Nearby

Air Quality

  Air Quality AQ Index Pollutant
Yesterday Good
OZONE
Current Good
OZONE
Tuesday Good
PM10
Tuesday Moderate
OZONE
Tuesday Good
CO
Tuesday Good
NO2

Snow Depth

Station Depth Elevation
Virginia Lakes Ridge 0 in 9200 ft
Leavitt Lake 1 in 9400 ft
Leavitt Meadows 1 in 7200 ft
Sonora Pass 0 in 8800 ft
Summit Meadow 1 in 9122 ft

Earthquake Activity

City Distance Mag. Time & Date
Lone Pine, California 81 miles 2.6 5:26 AM PDT
2014-10-19
Minimum magnitude displayed is 2.5.

Coastal Water Temperatures

Place Temperature
No Stations Reporting

Nearby Weather Stations